createdAt,value
2023-01-23T00:00:47.413Z,16.03
2023-01-23T00:01:49.800Z,14.97
2023-01-23T00:02:51.357Z,14.87
2023-01-23T00:03:54.340Z,15.47
2023-01-23T00:04:55.949Z,15.60
2023-01-23T00:06:02.433Z,14.97
2023-01-23T00:07:03.977Z,15.50
2023-01-23T00:08:05.811Z,14.33
2023-01-23T00:09:08.281Z,14.10
2023-01-23T00:10:10.829Z,15.20
2023-01-23T00:11:16.095Z,15.33
2023-01-23T00:12:17.605Z,14.27
2023-01-23T00:13:19.158Z,14.90
2023-01-23T00:14:20.779Z,15.53
2023-01-23T00:15:22.302Z,15.10
2023-01-23T00:16:26.314Z,15.00
2023-01-23T00:17:27.964Z,15.30
2023-01-23T00:18:29.480Z,14.43
2023-01-23T00:19:30.968Z,15.80
2023-01-23T00:20:32.495Z,14.97
2023-01-23T00:21:34.079Z,14.40
2023-01-23T00:22:35.679Z,13.70
2023-01-23T00:23:38.176Z,13.43
2023-01-23T00:24:39.762Z,12.77
2023-01-23T00:25:41.332Z,12.00
2023-01-23T00:26:43.038Z,13.03
2023-01-23T00:27:44.533Z,12.77
2023-01-23T00:28:47.412Z,13.13
2023-01-23T00:29:49.122Z,13.10
2023-01-23T00:30:50.729Z,12.87
2023-01-23T00:31:52.360Z,13.30
2023-01-23T00:32:54.193Z,13.53
2023-01-23T00:34:01.391Z,13.90
2023-01-23T00:35:04.092Z,14.10
2023-01-23T00:36:06.185Z,12.40
2023-01-23T00:37:07.767Z,12.43
2023-01-23T00:38:09.339Z,13.50
2023-01-23T00:39:19.680Z,13.00
2023-01-23T00:40:21.776Z,13.23
2023-01-23T00:41:24.472Z,12.90
2023-01-23T00:42:26.045Z,12.70
2023-01-23T00:43:27.699Z,13.80
2023-01-23T00:44:30.865Z,12.87
2023-01-23T00:45:32.438Z,11.73
2023-01-23T00:46:35.005Z,12.30
2023-01-23T00:47:36.678Z,12.87
2023-01-23T00:48:38.267Z,12.40
2023-01-23T00:49:39.832Z,12.20
2023-01-23T00:50:41.432Z,12.33
2023-01-23T00:51:42.996Z,12.73
2023-01-23T00:52:44.538Z,12.83
2023-01-23T00:53:46.154Z,13.53
2023-01-23T00:54:47.671Z,12.30
2023-01-23T00:55:49.217Z,13.33
2023-01-23T00:56:50.784Z,12.00
2023-01-23T00:57:52.453Z,12.53
2023-01-23T00:58:54.107Z,20.27
2023-01-23T00:59:55.612Z,18.57
2023-01-23T01:00:57.166Z,21.57
2023-01-23T01:01:58.772Z,19.60
2023-01-23T01:03:00.430Z,16.40
2023-01-23T01:04:02.049Z,17.00
2023-01-23T01:05:03.681Z,15.20
2023-01-23T01:06:05.846Z,15.00
2023-01-23T01:07:07.375Z,13.50
2023-01-23T01:08:08.946Z,14.17
2023-01-23T01:09:10.556Z,17.13
2023-01-23T01:10:12.453Z,17.43
2023-01-23T01:11:14.300Z,13.40
2023-01-23T01:12:16.492Z,13.77
2023-01-23T01:13:21.440Z,13.73
2023-01-23T01:14:23.025Z,12.27
2023-01-23T01:15:25.124Z,11.87
2023-01-23T01:16:26.896Z,11.80
2023-01-23T01:17:28.826Z,11.83
2023-01-23T01:18:30.645Z,12.00
2023-01-23T01:19:32.183Z,12.87
2023-01-23T01:20:33.707Z,12.63
2023-01-23T01:21:35.914Z,12.30
2023-01-23T01:22:37.462Z,12.67
2023-01-23T01:23:40.397Z,13.10
2023-01-23T01:24:42.568Z,13.90
2023-01-23T01:25:44.701Z,13.13
2023-01-23T01:26:46.313Z,13.07
2023-01-23T01:27:48.195Z,13.80
2023-01-23T01:28:49.842Z,13.93
2023-01-23T01:29:51.510Z,12.73
2023-01-23T01:30:53.150Z,13.40
2023-01-23T01:31:54.805Z,13.07
2023-01-23T01:32:57.340Z,11.73
2023-01-23T01:33:58.870Z,12.60
2023-01-23T01:35:00.392Z,11.93
2023-01-23T01:36:02.366Z,12.40
2023-01-23T01:37:03.944Z,13.43
2023-01-23T01:38:05.490Z,12.83
2023-01-23T01:39:07.302Z,13.27
2023-01-23T01:40:15.635Z,12.20
2023-01-23T01:41:18.017Z,12.53
2023-01-23T01:42:19.559Z,12.33
2023-01-23T01:43:24.757Z,13.33
2023-01-23T01:44:26.395Z,12.73
2023-01-23T01:46:08.528Z,13.00
2023-01-23T01:47:15.909Z,13.30
2023-01-23T01:48:21.584Z,12.07
2023-01-23T01:49:33.522Z,11.47
2023-01-23T01:50:35.421Z,12.73
2023-01-23T01:51:39.827Z,12.47
2023-01-23T01:52:41.402Z,12.47
2023-01-23T01:53:46.619Z,11.77
2023-01-23T01:55:02.840Z,11.57
2023-01-23T01:56:05.659Z,10.97
2023-01-23T01:57:27.250Z,11.47
2023-01-23T01:58:29.677Z,10.10
2023-01-23T01:59:35.758Z,12.03
2023-01-23T02:00:37.356Z,11.80
2023-01-23T02:01:40.826Z,12.47
2023-01-23T02:02:51.109Z,12.27
2023-01-23T02:03:54.983Z,11.97
2023-01-23T02:05:15.700Z,12.27
2023-01-23T02:06:17.989Z,11.03
2023-01-23T02:07:27.772Z,11.73
2023-01-23T02:08:50.794Z,11.37
2023-01-23T02:09:52.791Z,11.17
2023-01-23T02:10:54.849Z,10.50
2023-01-23T02:11:56.449Z,10.57
2023-01-23T02:13:31.201Z,10.77
2023-01-23T02:14:33.053Z,10.77
2023-01-23T02:15:41.616Z,10.40
2023-01-23T02:16:50.189Z,10.33
2023-01-23T02:17:54.770Z,10.83
2023-01-23T02:19:01.055Z,11.13
2023-01-23T02:20:20.795Z,24.87
2023-01-23T02:21:25.473Z,14.20
2023-01-23T02:22:46.380Z,12.27
2023-01-23T02:24:09.537Z,12.63
2023-01-23T02:25:36.329Z,12.90
2023-01-23T02:26:44.124Z,47.63
2023-01-23T02:27:45.694Z,19.60
2023-01-23T02:28:51.638Z,14.40
2023-01-23T02:29:56.253Z,12.93
2023-01-23T02:30:57.833Z,12.30
2023-01-23T02:31:59.610Z,13.70
2023-01-23T02:33:19.523Z,13.43
2023-01-23T02:34:22.381Z,14.67
2023-01-23T02:35:30.758Z,13.37
2023-01-23T02:36:34.973Z,12.60
2023-01-23T02:37:41.108Z,13.00
2023-01-23T02:39:06.902Z,11.87
2023-01-23T02:40:09.371Z,11.63
2023-01-23T02:41:13.797Z,11.57
2023-01-23T02:42:15.516Z,11.37
2023-01-23T02:43:21.331Z,11.80
2023-01-23T02:44:29.345Z,10.93
2023-01-23T02:45:31.308Z,10.73
2023-01-23T02:46:32.938Z,10.83
2023-01-23T02:47:34.593Z,10.87
2023-01-23T02:48:37.500Z,10.73
2023-01-23T02:49:40.343Z,11.00
2023-01-23T02:50:43.439Z,11.30
2023-01-23T02:51:44.940Z,11.53
2023-01-23T02:52:47.209Z,12.90
2023-01-23T02:53:49.475Z,12.10
2023-01-23T02:54:51.153Z,12.73
2023-01-23T02:55:52.703Z,11.80
2023-01-23T02:56:54.244Z,12.60
2023-01-23T02:58:19.322Z,12.83
2023-01-23T02:59:39.471Z,12.93
2023-01-23T03:00:43.455Z,13.20
2023-01-23T03:01:45.118Z,12.93
2023-01-23T03:02:51.085Z,14.00
2023-01-23T03:03:53.525Z,12.57
2023-01-23T03:04:55.074Z,13.17
2023-01-23T03:05:59.227Z,13.00
2023-01-23T03:07:00.788Z,12.97
2023-01-23T03:08:02.338Z,12.67
2023-01-23T03:09:07.997Z,11.77
2023-01-23T03:10:11.128Z,11.77
2023-01-23T03:11:12.669Z,11.50
2023-01-23T03:12:15.452Z,11.33
2023-01-23T03:13:17.030Z,11.30
2023-01-23T03:14:21.182Z,11.60
2023-01-23T03:15:22.703Z,10.23
2023-01-23T03:16:24.336Z,11.03
2023-01-23T03:17:26.031Z,11.97
2023-01-23T03:18:27.735Z,11.73
2023-01-23T03:19:29.271Z,12.10
2023-01-23T03:20:37.591Z,11.10
2023-01-23T03:21:40.525Z,12.10
2023-01-23T03:22:42.221Z,11.43
2023-01-23T03:23:46.646Z,11.17
2023-01-23T03:24:48.250Z,10.97
2023-01-23T03:25:58.473Z,10.90
2023-01-23T03:27:00.116Z,10.70
2023-01-23T03:28:01.723Z,10.97
2023-01-23T03:29:21.900Z,11.33
2023-01-23T03:30:25.587Z,11.07
2023-01-23T03:31:27.141Z,11.60
2023-01-23T03:32:29.398Z,11.77
2023-01-23T03:33:31.041Z,12.17
2023-01-23T03:34:32.997Z,12.23
2023-01-23T03:35:34.567Z,12.00
2023-01-23T03:36:37.434Z,12.03
2023-01-23T03:37:39.026Z,12.93
2023-01-23T03:39:00.814Z,13.13
2023-01-23T03:40:22.178Z,12.87
2023-01-23T03:41:26.450Z,12.77
2023-01-23T03:42:28.081Z,14.47
2023-01-23T03:43:33.314Z,14.10
2023-01-23T03:44:34.932Z,14.80
2023-01-23T03:45:36.550Z,15.77
2023-01-23T03:46:38.096Z,15.17
2023-01-23T03:47:39.604Z,14.90
2023-01-23T03:48:41.225Z,15.30
2023-01-23T03:49:42.764Z,14.50
2023-01-23T03:50:44.355Z,15.23
2023-01-23T03:51:46.026Z,14.27
2023-01-23T03:52:47.723Z,14.17
2023-01-23T03:53:49.281Z,13.73
2023-01-23T03:54:51.258Z,13.37
2023-01-23T03:55:52.836Z,12.90
2023-01-23T03:56:54.909Z,12.67
2023-01-23T03:57:56.437Z,14.07
2023-01-23T03:58:58.969Z,11.90
2023-01-23T04:00:00.761Z,19.37
2023-01-23T04:01:06.261Z,16.43
2023-01-23T04:02:08.005Z,13.83
2023-01-23T04:03:09.614Z,13.77
2023-01-23T04:04:11.221Z,13.90
2023-01-23T04:05:12.759Z,14.67
2023-01-23T04:06:14.292Z,14.17
2023-01-23T04:07:15.853Z,12.90
2023-01-23T04:08:17.420Z,13.90
2023-01-23T04:09:19.015Z,13.13
2023-01-23T04:10:20.904Z,13.87
2023-01-23T04:11:22.809Z,13.50
2023-01-23T04:12:24.328Z,12.73
2023-01-23T04:13:25.883Z,13.43
2023-01-23T04:14:30.528Z,13.37
2023-01-23T04:15:33.425Z,13.37
2023-01-23T04:16:35.123Z,13.60
2023-01-23T04:17:36.787Z,13.77
2023-01-23T04:18:39.152Z,13.03
2023-01-23T04:19:40.667Z,12.73
2023-01-23T04:20:42.174Z,12.60
2023-01-23T04:21:43.746Z,12.77
2023-01-23T04:22:45.317Z,12.90
2023-01-23T04:23:47.166Z,13.23
2023-01-23T04:24:48.968Z,13.90
2023-01-23T04:25:51.521Z,13.93
2023-01-23T04:26:53.838Z,13.97
2023-01-23T04:27:55.377Z,12.70
2023-01-23T04:28:56.900Z,14.10
2023-01-23T04:29:58.531Z,13.03
2023-01-23T04:31:01.545Z,13.93
2023-01-23T04:32:03.475Z,13.80
2023-01-23T04:33:05.146Z,17.83
2023-01-23T04:34:06.669Z,15.17
2023-01-23T04:35:08.429Z,11.07
2023-01-23T04:36:11.226Z,10.50
2023-01-23T04:37:12.818Z,10.47
2023-01-23T04:38:14.341Z,10.73
2023-01-23T04:39:15.832Z,11.53
2023-01-23T04:40:18.815Z,12.07
2023-01-23T04:41:26.682Z,12.40
2023-01-23T04:42:28.222Z,11.83
2023-01-23T04:43:30.644Z,11.67
2023-01-23T04:44:32.182Z,11.20
2023-01-23T04:45:33.752Z,12.30
2023-01-23T04:46:35.467Z,10.73
2023-01-23T04:47:37.623Z,11.93
2023-01-23T04:48:39.225Z,13.07
2023-01-23T04:49:40.809Z,12.03
2023-01-23T04:50:42.364Z,12.37
2023-01-23T04:51:44.530Z,11.37
2023-01-23T04:52:46.125Z,12.80
2023-01-23T04:53:47.742Z,12.63
2023-01-23T04:54:49.305Z,12.23
2023-01-23T04:55:50.848Z,11.63
2023-01-23T04:56:52.475Z,12.57
2023-01-23T04:57:54.639Z,13.10
2023-01-23T04:58:56.216Z,13.07
2023-01-23T04:59:59.562Z,11.77
2023-01-23T05:01:06.372Z,12.03
2023-01-23T05:02:07.963Z,12.67
2023-01-23T05:03:09.508Z,11.97
2023-01-23T05:04:11.103Z,13.20
2023-01-23T05:05:12.815Z,12.57
2023-01-23T05:06:14.375Z,12.83
2023-01-23T05:07:16.235Z,12.10
2023-01-23T05:08:17.980Z,11.77
2023-01-23T05:09:19.508Z,11.47
2023-01-23T05:10:21.305Z,12.73
2023-01-23T05:11:23.191Z,12.60
2023-01-23T05:12:24.750Z,12.33
2023-01-23T05:13:26.301Z,12.67
2023-01-23T05:14:27.874Z,11.60
2023-01-23T05:15:32.856Z,12.37
2023-01-23T05:16:34.596Z,12.87
2023-01-23T05:17:36.122Z,10.90
2023-01-23T05:18:37.822Z,11.77
2023-01-23T05:19:39.384Z,12.13
2023-01-23T05:20:41.132Z,11.97
2023-01-23T05:21:42.830Z,11.63
2023-01-23T05:22:52.648Z,11.43
2023-01-23T05:23:54.379Z,12.90
2023-01-23T05:24:55.935Z,13.13
2023-01-23T05:25:57.538Z,12.13
2023-01-23T05:26:59.112Z,12.90
2023-01-23T05:28:00.799Z,12.03
2023-01-23T05:29:02.862Z,11.57
2023-01-23T05:30:04.836Z,12.33
2023-01-23T05:31:06.452Z,12.53
2023-01-23T05:32:08.380Z,12.00
2023-01-23T05:33:09.933Z,13.00
2023-01-23T05:34:11.561Z,12.67
2023-01-23T05:35:13.743Z,13.03
2023-01-23T05:36:17.663Z,12.90
2023-01-23T05:37:20.588Z,13.63
2023-01-23T05:38:22.122Z,12.33
2023-01-23T05:39:23.743Z,13.00
2023-01-23T05:40:25.524Z,12.80
2023-01-23T05:41:27.047Z,13.33
2023-01-23T05:42:28.696Z,14.00
2023-01-23T05:43:30.311Z,13.90
2023-01-23T05:44:32.034Z,13.00
2023-01-23T05:45:34.839Z,14.30
2023-01-23T05:46:36.472Z,14.13
2023-01-23T05:47:38.460Z,13.50
2023-01-23T05:48:40.057Z,13.67
2023-01-23T05:49:41.789Z,14.50
2023-01-23T05:50:43.371Z,14.33
2023-01-23T05:51:44.916Z,14.37
2023-01-23T05:52:46.708Z,14.67
2023-01-23T05:53:48.295Z,14.73
2023-01-23T05:54:50.597Z,14.73
2023-01-23T05:55:52.165Z,14.57
2023-01-23T05:56:53.720Z,10.97
2023-01-23T05:57:55.328Z,15.80
2023-01-23T05:58:56.889Z,12.40
2023-01-23T05:59:58.437Z,11.93
2023-01-23T06:01:02.602Z,11.70
2023-01-23T06:02:04.155Z,11.57
2023-01-23T06:03:06.645Z,11.20
2023-01-23T06:04:08.185Z,11.47
2023-01-23T06:05:09.811Z,9.97
2023-01-23T06:06:11.399Z,11.13
2023-01-23T06:07:14.418Z,8.80
2023-01-23T06:08:15.925Z,9.20
2023-01-23T06:09:17.518Z,8.97
2023-01-23T06:10:19.514Z,8.87
2023-01-23T06:11:21.193Z,8.13
2023-01-23T06:12:22.932Z,8.63
2023-01-23T06:13:25.579Z,8.50
2023-01-23T06:14:27.100Z,7.77
2023-01-23T06:15:28.700Z,7.87
2023-01-23T06:16:30.247Z,8.30
2023-01-23T06:17:31.843Z,10.73
2023-01-23T06:18:33.572Z,10.60
2023-01-23T06:19:35.234Z,11.27
2023-01-23T06:20:36.832Z,13.40
2023-01-23T06:21:38.797Z,12.93
2023-01-23T06:22:40.440Z,13.00
2023-01-23T06:23:41.995Z,13.27
2023-01-23T06:24:43.551Z,12.83
2023-01-23T06:25:45.304Z,13.50
2023-01-23T06:26:46.908Z,13.63
2023-01-23T06:27:48.522Z,13.87
2023-01-23T06:28:50.095Z,14.80
2023-01-23T06:29:51.596Z,16.90
2023-01-23T06:30:53.268Z,17.80
2023-01-23T06:31:54.883Z,16.30
2023-01-23T06:32:56.642Z,16.63
2023-01-23T06:33:59.105Z,16.50
2023-01-23T06:35:00.837Z,14.87
2023-01-23T06:36:05.435Z,15.20
2023-01-23T06:37:06.983Z,15.23
2023-01-23T06:38:08.578Z,15.20
2023-01-23T06:39:13.224Z,15.03
2023-01-23T06:40:15.320Z,14.00
2023-01-23T06:41:19.780Z,13.47
2023-01-23T06:42:21.516Z,13.57
2023-01-23T06:43:24.002Z,13.87
2023-01-23T06:44:25.673Z,12.60
2023-01-23T06:45:27.417Z,13.00
2023-01-23T06:46:29.051Z,13.23
2023-01-23T06:47:30.585Z,12.07
2023-01-23T06:48:32.151Z,12.90
2023-01-23T06:49:33.810Z,12.33
2023-01-23T06:50:35.312Z,12.53
2023-01-23T06:51:36.932Z,13.00
2023-01-23T06:52:38.479Z,11.80
2023-01-23T06:53:40.088Z,13.30
2023-01-23T06:54:41.644Z,13.13
2023-01-23T06:55:43.190Z,12.73
2023-01-23T06:56:44.862Z,13.20
2023-01-23T06:57:46.356Z,11.43
2023-01-23T06:58:48.862Z,13.03
2023-01-23T06:59:50.675Z,13.53
2023-01-23T07:00:52.192Z,12.53
2023-01-23T07:01:53.773Z,13.50
2023-01-23T07:02:58.979Z,13.47
2023-01-23T07:04:01.041Z,14.23
2023-01-23T07:05:02.553Z,14.37
2023-01-23T07:06:07.083Z,13.57
2023-01-23T07:07:08.677Z,13.93
2023-01-23T07:08:10.382Z,14.30
2023-01-23T07:09:12.610Z,15.33
2023-01-23T07:10:14.367Z,14.23
2023-01-23T07:11:16.053Z,13.57
2023-01-23T07:12:17.661Z,13.70
2023-01-23T07:13:19.231Z,13.43
2023-01-23T07:14:20.765Z,11.80
2023-01-23T07:15:22.343Z,11.63
2023-01-23T07:16:25.165Z,14.80
2023-01-23T07:17:26.952Z,15.57
2023-01-23T07:18:30.365Z,16.00
2023-01-23T07:19:31.944Z,16.40
2023-01-23T07:20:33.632Z,18.37
2023-01-23T07:21:35.260Z,18.80
2023-01-23T07:22:36.832Z,15.30
2023-01-23T07:23:38.366Z,18.23
2023-01-23T07:24:40.028Z,19.67
2023-01-23T07:25:42.264Z,21.70
2023-01-23T07:26:43.882Z,20.27
2023-01-23T07:27:45.439Z,21.63
2023-01-23T07:28:47.012Z,18.07
2023-01-23T07:29:48.770Z,17.10
2023-01-23T07:30:50.815Z,18.47
2023-01-23T07:31:52.892Z,19.47
2023-01-23T07:32:55.186Z,20.37
2023-01-23T07:33:56.777Z,18.57
2023-01-23T07:34:58.331Z,18.70
2023-01-23T07:36:00.114Z,19.53
2023-01-23T07:37:01.940Z,19.20
2023-01-23T07:38:03.507Z,19.93
2023-01-23T07:39:05.017Z,18.80
2023-01-23T07:40:07.136Z,18.20
2023-01-23T07:41:09.197Z,17.77
2023-01-23T07:42:10.848Z,18.43
2023-01-23T07:43:12.571Z,18.83
2023-01-23T07:44:17.605Z,19.40
2023-01-23T07:45:19.190Z,16.50
2023-01-23T07:46:25.137Z,16.83
2023-01-23T07:47:26.793Z,16.43
2023-01-23T07:48:29.462Z,16.43
2023-01-23T07:49:31.028Z,16.70
2023-01-23T07:50:32.624Z,17.00
2023-01-23T07:51:34.838Z,19.10
2023-01-23T07:52:36.567Z,18.33
2023-01-23T07:53:38.157Z,18.23
2023-01-23T07:54:39.686Z,18.17
2023-01-23T07:55:41.436Z,18.33
2023-01-23T07:56:43.117Z,17.13
2023-01-23T07:57:44.802Z,18.10
2023-01-23T07:58:50.117Z,18.03
2023-01-23T07:59:51.648Z,17.63
2023-01-23T08:00:53.289Z,17.43
2023-01-23T08:01:54.875Z,16.40
2023-01-23T08:02:57.030Z,17.20
2023-01-23T08:03:58.811Z,17.67
2023-01-23T08:05:00.461Z,18.33
2023-01-23T08:06:02.005Z,19.37
2023-01-23T08:07:04.022Z,19.93
2023-01-23T08:08:13.476Z,19.83
2023-01-23T08:09:15.549Z,17.93
2023-01-23T08:10:17.381Z,18.73
2023-01-23T08:11:19.559Z,19.03
2023-01-23T08:12:21.155Z,20.20
2023-01-23T08:13:22.706Z,19.43
2023-01-23T08:14:24.241Z,20.03
2023-01-23T08:15:25.782Z,19.83
2023-01-23T08:16:27.998Z,20.77
2023-01-23T08:17:29.627Z,23.17
2023-01-23T08:18:31.981Z,25.13
2023-01-23T08:19:33.509Z,25.73
2023-01-23T08:20:35.057Z,26.80
2023-01-23T08:21:36.639Z,30.13
2023-01-23T08:22:40.836Z,30.07
2023-01-23T08:23:42.801Z,32.00
2023-01-23T08:24:44.650Z,39.10
2023-01-23T08:25:46.310Z,42.03
2023-01-23T08:26:48.043Z,41.50
2023-01-23T08:27:49.710Z,40.20
2023-01-23T08:28:51.245Z,37.97
2023-01-23T08:29:52.848Z,37.07
2023-01-23T08:30:55.539Z,37.80
2023-01-23T08:31:57.416Z,37.17
2023-01-23T08:33:00.042Z,39.00
2023-01-23T08:34:01.825Z,41.63
2023-01-23T08:35:04.940Z,39.00
2023-01-23T08:36:10.941Z,39.07
2023-01-23T08:37:12.909Z,41.83
2023-01-23T08:38:14.569Z,41.07
2023-01-23T08:39:20.246Z,40.17
2023-01-23T08:40:22.243Z,41.97
2023-01-23T08:41:24.225Z,42.20
2023-01-23T08:42:26.033Z,40.80
2023-01-23T08:43:28.275Z,42.47
2023-01-23T08:44:31.334Z,43.20
2023-01-23T08:45:33.144Z,43.20
2023-01-23T08:46:34.820Z,38.40
2023-01-23T08:47:36.979Z,31.57
2023-01-23T08:48:39.137Z,31.73
2023-01-23T08:49:40.702Z,25.23
2023-01-23T08:50:42.640Z,27.27
2023-01-23T08:51:44.228Z,30.40
2023-01-23T08:52:45.824Z,29.00
2023-01-23T08:53:47.508Z,25.60
2023-01-23T08:54:49.088Z,25.60
2023-01-23T08:55:50.777Z,24.97
2023-01-23T08:56:52.298Z,23.67
2023-01-23T08:57:53.974Z,23.27
2023-01-23T08:58:55.583Z,21.87
2023-01-23T08:59:57.132Z,21.93
2023-01-23T09:00:58.948Z,20.43
2023-01-23T09:02:00.703Z,20.37
2023-01-23T09:03:03.541Z,20.87
2023-01-23T09:04:05.277Z,19.57
2023-01-23T09:05:07.215Z,22.10
2023-01-23T09:06:11.057Z,22.50
2023-01-23T09:07:12.552Z,23.07
2023-01-23T09:08:14.460Z,23.73
2023-01-23T09:09:16.032Z,23.67
2023-01-23T09:10:17.725Z,20.90
2023-01-23T09:11:20.002Z,18.70
2023-01-23T09:12:21.830Z,18.50
2023-01-23T09:13:23.329Z,17.53
2023-01-23T09:14:24.872Z,17.00
2023-01-23T09:15:26.613Z,16.97
2023-01-23T09:16:28.204Z,16.33
2023-01-23T09:17:29.843Z,16.53
2023-01-23T09:18:31.706Z,17.00
2023-01-23T09:19:33.434Z,14.93
2023-01-23T09:20:34.984Z,14.83
2023-01-23T09:21:36.777Z,16.13
2023-01-23T09:22:38.390Z,14.77
2023-01-23T09:23:40.086Z,16.27
2023-01-23T09:24:41.646Z,16.47
2023-01-23T09:25:43.156Z,17.10
2023-01-23T09:26:44.727Z,17.20
2023-01-23T09:27:46.267Z,17.77
2023-01-23T09:28:47.834Z,18.50
2023-01-23T09:29:49.913Z,20.20
2023-01-23T09:30:51.512Z,19.07
2023-01-23T09:31:53.188Z,19.70
2023-01-23T09:32:54.772Z,18.43
2023-01-23T09:33:56.394Z,19.07
2023-01-23T09:34:57.954Z,18.60
2023-01-23T09:35:59.491Z,19.70
2023-01-23T09:37:01.056Z,18.17
2023-01-23T09:38:07.104Z,18.03
2023-01-23T09:39:09.009Z,18.53
2023-01-23T09:40:17.337Z,18.77
2023-01-23T09:41:25.639Z,19.63
2023-01-23T09:42:33.934Z,23.10
2023-01-23T09:43:44.930Z,21.90
2023-01-23T09:44:57.551Z,20.73
2023-01-23T09:46:13.042Z,19.63
2023-01-23T09:47:26.911Z,17.93
2023-01-23T09:48:37.657Z,19.33
2023-01-23T09:49:57.260Z,19.93
2023-01-23T09:51:07.731Z,19.40
2023-01-23T09:52:16.417Z,18.57
2023-01-23T09:53:23.055Z,19.27
2023-01-23T09:55:04.276Z,18.13
2023-01-23T09:56:32.197Z,17.90
2023-01-23T09:57:39.243Z,17.93
2023-01-23T09:58:47.585Z,16.83
2023-01-23T10:00:01.076Z,39.10
2023-01-23T10:01:03.101Z,37.97
2023-01-23T10:02:25.744Z,36.50
2023-01-23T10:03:31.592Z,32.20
2023-01-23T10:04:33.396Z,36.43
2023-01-23T10:05:43.942Z,43.20
2023-01-23T10:06:54.229Z,39.07
2023-01-23T10:08:07.822Z,35.57
2023-01-23T10:09:27.883Z,39.27
2023-01-23T10:10:57.539Z,35.63
2023-01-23T10:12:11.309Z,32.80
2023-01-23T10:13:23.014Z,33.63
2023-01-23T10:14:43.125Z,32.50
2023-01-23T10:16:03.562Z,33.00
2023-01-23T10:17:14.148Z,31.13
2023-01-23T10:18:48.240Z,29.67
2023-01-23T10:20:02.697Z,26.80
2023-01-23T10:21:10.235Z,24.70
2023-01-23T10:22:34.512Z,23.93
2023-01-23T10:24:05.283Z,21.17
2023-01-23T10:25:19.016Z,20.37
2023-01-23T10:26:31.619Z,18.53
2023-01-23T10:27:47.688Z,19.13
2023-01-23T10:28:54.864Z,18.77
2023-01-23T10:30:03.995Z,17.90
2023-01-23T10:31:12.423Z,17.87
2023-01-23T10:32:26.308Z,17.93
2023-01-23T10:33:39.519Z,17.10
2023-01-23T10:34:58.652Z,17.60
2023-01-23T10:36:12.559Z,18.17
2023-01-23T10:37:37.863Z,18.00
2023-01-23T10:39:02.805Z,20.20
2023-01-23T10:40:15.395Z,19.50
2023-01-23T10:41:25.704Z,20.10
2023-01-23T10:42:28.268Z,18.50
2023-01-23T10:43:29.806Z,18.47
2023-01-23T10:44:31.346Z,19.30
2023-01-23T10:45:32.978Z,19.50
2023-01-23T10:46:39.521Z,18.57
2023-01-23T10:47:50.071Z,17.80
2023-01-23T10:48:56.205Z,18.93
2023-01-23T10:49:57.814Z,17.27
2023-01-23T10:51:00.217Z,15.97
2023-01-23T10:52:02.281Z,15.60
2023-01-23T10:53:18.098Z,14.43
2023-01-23T10:54:31.841Z,12.57
2023-01-23T10:55:34.049Z,14.40
2023-01-23T10:56:39.440Z,14.17
2023-01-23T10:57:48.468Z,14.60
2023-01-23T10:58:51.327Z,13.00
2023-01-23T10:59:58.226Z,14.37
2023-01-23T11:01:00.427Z,13.63
2023-01-23T11:02:14.439Z,14.50
2023-01-23T11:03:21.997Z,13.50
2023-01-23T11:04:26.646Z,13.60
2023-01-23T11:05:51.152Z,13.17
2023-01-23T11:07:05.257Z,13.57
2023-01-23T11:08:28.130Z,13.73
2023-01-23T11:09:31.267Z,13.33
2023-01-23T11:10:33.088Z,13.27
2023-01-23T11:11:36.244Z,12.13
2023-01-23T11:12:50.171Z,12.37
2023-01-23T11:14:14.366Z,12.47
2023-01-23T11:15:48.691Z,13.03
2023-01-23T11:17:17.222Z,12.07
2023-01-23T11:18:31.080Z,11.73
2023-01-23T11:19:33.374Z,13.17
2023-01-23T11:20:42.868Z,13.23
2023-01-23T11:21:53.687Z,14.97
2023-01-23T11:23:17.158Z,14.20
2023-01-23T11:24:24.781Z,15.37
2023-01-23T11:25:35.576Z,15.63
2023-01-23T11:26:37.989Z,15.07
2023-01-23T11:27:39.559Z,14.30
2023-01-23T11:28:49.547Z,14.40
2023-01-23T11:30:09.117Z,13.43
2023-01-23T11:31:22.273Z,15.30
2023-01-23T11:32:24.907Z,15.90
2023-01-23T11:33:26.491Z,15.50
2023-01-23T11:34:35.473Z,14.73
2023-01-23T11:35:52.384Z,14.40
2023-01-23T11:37:11.550Z,15.00
2023-01-23T11:38:27.167Z,14.93
2023-01-23T11:39:49.606Z,15.00
2023-01-23T11:40:51.744Z,14.67
2023-01-23T11:41:53.431Z,15.17
2023-01-23T11:42:55.643Z,14.60
2023-01-23T11:43:57.441Z,13.70
2023-01-23T11:44:59.765Z,14.00
2023-01-23T11:46:35.393Z,15.67
2023-01-23T11:48:01.442Z,14.83
2023-01-23T11:49:27.834Z,15.43
2023-01-23T11:51:00.908Z,16.67
2023-01-23T11:52:19.640Z,16.37
2023-01-23T11:53:22.510Z,16.00
2023-01-23T11:54:47.754Z,18.10
2023-01-23T11:55:57.856Z,17.80
2023-01-23T11:57:03.233Z,17.70
2023-01-23T11:58:22.408Z,17.83
2023-01-23T11:59:34.603Z,17.23
2023-01-23T12:00:44.005Z,16.23
2023-01-23T12:02:24.080Z,16.93
2023-01-23T12:03:43.683Z,17.23
2023-01-23T12:05:05.854Z,17.27
2023-01-23T12:06:29.272Z,17.90
2023-01-23T12:07:54.139Z,16.30
2023-01-23T12:09:15.868Z,15.80
2023-01-23T12:10:38.669Z,15.33
2023-01-23T12:12:02.711Z,15.37
2023-01-23T12:13:33.063Z,15.90
2023-01-23T12:14:53.335Z,16.37
2023-01-23T12:16:08.144Z,16.70
2023-01-23T12:17:32.781Z,16.17
2023-01-23T12:18:56.495Z,16.20
2023-01-23T12:20:17.804Z,15.93
2023-01-23T12:21:29.265Z,16.80
2023-01-23T12:22:52.732Z,16.57
2023-01-23T12:24:03.053Z,15.80
2023-01-23T12:25:21.233Z,16.83
2023-01-23T12:26:26.944Z,15.93
2023-01-23T12:27:38.732Z,15.80
2023-01-23T12:28:52.475Z,15.97
2023-01-23T12:30:08.939Z,15.93
2023-01-23T12:31:27.733Z,15.73
2023-01-23T12:32:53.970Z,16.07
2023-01-23T12:34:08.729Z,15.67
2023-01-23T12:35:27.889Z,15.40
2023-01-23T12:36:29.463Z,16.10
2023-01-23T12:37:52.632Z,16.90
2023-01-23T12:38:59.740Z,16.20
2023-01-23T12:40:12.773Z,15.27
2023-01-23T12:41:40.297Z,14.43
2023-01-23T12:42:53.719Z,13.30
2023-01-23T12:44:16.589Z,13.37
2023-01-23T12:45:23.187Z,13.80
2023-01-23T12:46:39.788Z,13.73
2023-01-23T12:47:48.708Z,14.63
2023-01-23T12:48:59.390Z,14.00
2023-01-23T12:50:09.238Z,14.00
2023-01-23T12:51:19.725Z,13.67
2023-01-23T12:52:27.160Z,13.37
2023-01-23T12:53:33.051Z,13.13
2023-01-23T12:54:52.156Z,12.43
2023-01-23T12:56:13.885Z,13.20
2023-01-23T12:57:46.207Z,13.43
2023-01-23T12:59:16.608Z,13.20
2023-01-23T13:00:44.115Z,12.70
2023-01-23T13:02:10.087Z,13.23
2023-01-23T13:03:15.333Z,12.00
2023-01-23T13:04:39.991Z,11.93
2023-01-23T13:06:10.645Z,11.77
2023-01-23T13:07:39.375Z,12.50
2023-01-23T13:09:02.451Z,12.90
2023-01-23T13:10:54.647Z,12.43
2023-01-23T13:12:24.078Z,11.47
2023-01-23T13:13:27.231Z,12.03
2023-01-23T13:14:43.529Z,12.30
2023-01-23T13:16:16.666Z,11.40
2023-01-23T13:17:35.025Z,11.03
2023-01-23T13:18:56.662Z,9.73
2023-01-23T13:20:41.902Z,10.17
2023-01-23T13:22:18.896Z,9.67
2023-01-23T13:23:29.814Z,9.43
2023-01-23T13:25:03.797Z,10.03
2023-01-23T13:26:22.894Z,9.80
2023-01-23T13:27:38.605Z,9.53
2023-01-23T13:28:44.840Z,10.07
2023-01-23T13:29:50.145Z,9.73
2023-01-23T13:31:03.627Z,10.30
2023-01-23T13:32:22.761Z,9.87
2023-01-23T13:33:30.166Z,10.03
2023-01-23T13:34:31.612Z,9.60
2023-01-23T13:35:44.976Z,10.10
2023-01-23T13:36:48.492Z,10.00
2023-01-23T13:37:53.073Z,9.67
2023-01-23T13:39:02.672Z,10.03
2023-01-23T13:40:22.308Z,9.80
2023-01-23T13:41:33.894Z,9.60
2023-01-23T13:42:36.144Z,10.60
2023-01-23T13:43:54.844Z,10.77
2023-01-23T13:45:21.525Z,11.60
2023-01-23T13:46:38.394Z,12.57
2023-01-23T14:24:22.360Z,10.63
2023-01-23T14:25:24.985Z,10.27
2023-01-23T14:26:35.069Z,10.57
2023-01-23T14:27:52.227Z,9.73
2023-01-23T14:29:00.602Z,9.80
2023-01-23T14:30:14.603Z,9.53
2023-01-23T14:31:22.992Z,8.93
2023-01-23T14:32:25.631Z,8.90
2023-01-23T14:33:28.057Z,9.00
2023-01-23T14:34:29.606Z,8.47
2023-01-23T14:35:33.107Z,8.10
2023-01-23T14:36:37.312Z,7.77
2023-01-23T14:37:42.598Z,7.70
2023-01-23T14:38:47.125Z,7.20
2023-01-23T14:39:53.062Z,8.20
2023-01-23T14:40:57.426Z,6.70
2023-01-23T14:42:02.787Z,7.50
2023-01-23T14:43:12.536Z,7.70
2023-01-23T14:44:22.221Z,7.70
2023-01-23T14:45:23.891Z,7.90
2023-01-23T14:46:55.855Z,7.43
2023-01-23T14:48:05.606Z,7.80
2023-01-23T14:49:09.365Z,7.13
2023-01-23T14:50:18.024Z,7.80
2023-01-23T14:51:29.192Z,8.03